sensor_id;sensor_type;location;lat;lon;timestamp;P1;durP1;ratioP1;P2;durP2;ratioP2
55212;SDS011;41083;52.932;6.674;2023-05-10T00:01:37;5.30;;;2.60;;
55212;SDS011;41083;52.932;6.674;2023-05-10T00:04:03;5.45;;;2.63;;
55212;SDS011;41083;52.932;6.674;2023-05-10T00:06:28;6.07;;;3.00;;
55212;SDS011;41083;52.932;6.674;2023-05-10T00:08:55;6.88;;;2.78;;
55212;SDS011;41083;52.932;6.674;2023-05-10T00:11:20;5.47;;;2.47;;
55212;SDS011;41083;52.932;6.674;2023-05-10T00:13:46;5.97;;;2.40;;
55212;SDS011;41083;52.932;6.674;2023-05-10T00:16:12;5.75;;;2.70;;
55212;SDS011;41083;52.932;6.674;2023-05-10T00:18:38;4.97;;;2.40;;
55212;SDS011;41083;52.932;6.674;2023-05-10T00:21:04;6.28;;;2.88;;
55212;SDS011;41083;52.932;6.674;2023-05-10T00:23:30;5.95;;;2.75;;
55212;SDS011;41083;52.932;6.674;2023-05-10T00:25:55;6.20;;;2.72;;
55212;SDS011;41083;52.932;6.674;2023-05-10T00:28:21;7.15;;;2.83;;
55212;SDS011;41083;52.932;6.674;2023-05-10T00:30:48;6.70;;;2.40;;
55212;SDS011;41083;52.932;6.674;2023-05-10T00:33:14;6.32;;;3.10;;
55212;SDS011;41083;52.932;6.674;2023-05-10T00:35:39;6.72;;;2.75;;
55212;SDS011;41083;52.932;6.674;2023-05-10T00:38:05;5.88;;;2.80;;
55212;SDS011;41083;52.932;6.674;2023-05-10T00:40:31;5.53;;;2.83;;
55212;SDS011;41083;52.932;6.674;2023-05-10T00:42:57;7.25;;;2.55;;
55212;SDS011;41083;52.932;6.674;2023-05-10T00:45:23;6.45;;;2.78;;
55212;SDS011;41083;52.932;6.674;2023-05-10T00:47:50;5.55;;;2.20;;
55212;SDS011;41083;52.932;6.674;2023-05-10T00:50:19;5.78;;;2.63;;
55212;SDS011;41083;52.932;6.674;2023-05-10T00:52:46;5.00;;;2.33;;
55212;SDS011;41083;52.932;6.674;2023-05-10T00:55:11;5.25;;;2.17;;
55212;SDS011;41083;52.932;6.674;2023-05-10T00:57:37;4.57;;;2.42;;
55212;SDS011;41083;52.932;6.674;2023-05-10T01:00:03;6.78;;;2.50;;
55212;SDS011;41083;52.932;6.674;2023-05-10T01:02:29;5.50;;;2.25;;
55212;SDS011;41083;52.932;6.674;2023-05-10T01:04:55;5.53;;;2.08;;
55212;SDS011;41083;52.932;6.674;2023-05-10T01:07:21;6.40;;;2.83;;
55212;SDS011;41083;52.932;6.674;2023-05-10T01:09:46;4.30;;;2.00;;
55212;SDS011;41083;52.932;6.674;2023-05-10T01:12:12;5.30;;;2.53;;
55212;SDS011;41083;52.932;6.674;2023-05-10T01:14:38;5.03;;;2.47;;
55212;SDS011;41083;52.932;6.674;2023-05-10T01:17:04;5.47;;;2.58;;
55212;SDS011;41083;52.932;6.674;2023-05-10T01:19:31;8.10;;;2.72;;
55212;SDS011;41083;52.932;6.674;2023-05-10T01:22:04;6.28;;;2.70;;
55212;SDS011;41083;52.932;6.674;2023-05-10T01:24:46;5.43;;;2.60;;
55212;SDS011;41083;52.932;6.674;2023-05-10T01:27:39;4.57;;;2.10;;
55212;SDS011;41083;52.932;6.674;2023-05-10T01:30:49;6.07;;;2.53;;
55212;SDS011;41083;52.932;6.674;2023-05-10T01:38:59;7.05;;;2.70;;
55212;SDS011;41083;52.932;6.674;2023-05-10T01:47:10;5.53;;;2.20;;
55212;SDS011;41083;52.932;6.674;2023-05-10T01:49:47;6.40;;;2.08;;
55212;SDS011;41083;52.932;6.674;2023-05-10T01:52:16;5.95;;;2.45;;
55212;SDS011;41083;52.932;6.674;2023-05-10T01:54:45;5.75;;;2.45;;
55212;SDS011;41083;52.932;6.674;2023-05-10T01:57:16;6.15;;;1.92;;
55212;SDS011;41083;52.932;6.674;2023-05-10T01:59:45;5.53;;;2.05;;
55212;SDS011;41083;52.932;6.674;2023-05-10T02:02:15;4.35;;;1.95;;
55212;SDS011;41083;52.932;6.674;2023-05-10T02:04:43;4.30;;;2.15;;
55212;SDS011;41083;52.932;6.674;2023-05-10T02:07:11;5.32;;;1.73;;
55212;SDS011;41083;52.932;6.674;2023-05-10T02:09:38;3.50;;;1.75;;
55212;SDS011;41083;52.932;6.674;2023-05-10T02:12:05;5.43;;;2.10;;
55212;SDS011;41083;52.932;6.674;2023-05-10T02:14:34;7.28;;;2.47;;
55212;SDS011;41083;52.932;6.674;2023-05-10T02:17:05;6.30;;;2.90;;
55212;SDS011;41083;52.932;6.674;2023-05-10T02:19:32;6.88;;;2.60;;
55212;SDS011;41083;52.932;6.674;2023-05-10T02:22:00;4.97;;;1.95;;
55212;SDS011;41083;52.932;6.674;2023-05-10T02:24:28;6.72;;;2.58;;
55212;SDS011;41083;52.932;6.674;2023-05-10T02:26:54;6.25;;;2.75;;
55212;SDS011;41083;52.932;6.674;2023-05-10T02:29:22;4.78;;;2.50;;
55212;SDS011;41083;52.932;6.674;2023-05-10T02:31:49;5.03;;;2.30;;
55212;SDS011;41083;52.932;6.674;2023-05-10T02:34:17;7.18;;;2.45;;
55212;SDS011;41083;52.932;6.674;2023-05-10T02:36:44;5.00;;;1.70;;
55212;SDS011;41083;52.932;6.674;2023-05-10T02:39:10;4.00;;;1.83;;
55212;SDS011;41083;52.932;6.674;2023-05-10T02:41:38;5.30;;;2.53;;
55212;SDS011;41083;52.932;6.674;2023-05-10T02:44:06;4.80;;;2.20;;
55212;SDS011;41083;52.932;6.674;2023-05-10T02:46:34;6.47;;;2.30;;
55212;SDS011;41083;52.932;6.674;2023-05-10T02:49:00;5.28;;;2.35;;
55212;SDS011;41083;52.932;6.674;2023-05-10T02:51:28;5.80;;;1.95;;
55212;SDS011;41083;52.932;6.674;2023-05-10T02:53:57;3.58;;;1.75;;
55212;SDS011;41083;52.932;6.674;2023-05-10T02:56:31;4.80;;;1.60;;
55212;SDS011;41083;52.932;6.674;2023-05-10T02:58:59;5.55;;;2.17;;
55212;SDS011;41083;52.932;6.674;2023-05-10T03:01:25;4.82;;;2.17;;
55212;SDS011;41083;52.932;6.674;2023-05-10T03:03:50;4.53;;;2.17;;
55212;SDS011;41083;52.932;6.674;2023-05-10T03:06:16;6.60;;;2.55;;
55212;SDS011;41083;52.932;6.674;2023-05-10T03:08:42;6.38;;;2.97;;
55212;SDS011;41083;52.932;6.674;2023-05-10T03:14:42;5.15;;;2.03;;
55212;SDS011;41083;52.932;6.674;2023-05-10T03:16:47;4.40;;;1.90;;
55212;SDS011;41083;52.932;6.674;2023-05-10T03:19:26;7.57;;;2.90;;
55212;SDS011;41083;52.932;6.674;2023-05-10T03:21:59;7.20;;;2.20;;
55212;SDS011;41083;52.932;6.674;2023-05-10T03:24:28;5.68;;;2.40;;
55212;SDS011;41083;52.932;6.674;2023-05-10T03:26:55;4.90;;;1.95;;
55212;SDS011;41083;52.932;6.674;2023-05-10T03:29:25;4.63;;;2.30;;
55212;SDS011;41083;52.932;6.674;2023-05-10T03:31:51;6.82;;;2.40;;
55212;SDS011;41083;52.932;6.674;2023-05-10T03:34:16;6.55;;;2.60;;
55212;SDS011;41083;52.932;6.674;2023-05-10T03:36:48;6.80;;;2.40;;
55212;SDS011;41083;52.932;6.674;2023-05-10T03:39:14;4.60;;;1.88;;
55212;SDS011;41083;52.932;6.674;2023-05-10T03:41:39;6.38;;;2.30;;
55212;SDS011;41083;52.932;6.674;2023-05-10T03:44:05;3.67;;;1.67;;
55212;SDS011;41083;52.932;6.674;2023-05-10T03:46:31;4.30;;;2.17;;
55212;SDS011;41083;52.932;6.674;2023-05-10T03:48:56;5.30;;;2.10;;
55212;SDS011;41083;52.932;6.674;2023-05-10T03:51:22;5.07;;;2.70;;
55212;SDS011;41083;52.932;6.674;2023-05-10T03:53:47;6.03;;;2.67;;
55212;SDS011;41083;52.932;6.674;2023-05-10T03:56:13;4.13;;;2.25;;
55212;SDS011;41083;52.932;6.674;2023-05-10T03:58:39;5.95;;;2.17;;
55212;SDS011;41083;52.932;6.674;2023-05-10T04:01:04;4.03;;;2.08;;
55212;SDS011;41083;52.932;6.674;2023-05-10T04:03:30;4.68;;;2.00;;
55212;SDS011;41083;52.932;6.674;2023-05-10T04:06:01;6.30;;;2.40;;
55212;SDS011;41083;52.932;6.674;2023-05-10T04:08:27;4.15;;;1.60;;
55212;SDS011;41083;52.932;6.674;2023-05-10T04:10:53;4.22;;;1.90;;
55212;SDS011;41083;52.932;6.674;2023-05-10T04:13:19;4.07;;;1.67;;
55212;SDS011;41083;52.932;6.674;2023-05-10T04:15:45;3.67;;;1.70;;
55212;SDS011;41083;52.932;6.674;2023-05-10T04:18:11;2.97;;;1.45;;
55212;SDS011;41083;52.932;6.674;2023-05-10T04:20:36;5.15;;;1.77;;
55212;SDS011;41083;52.932;6.674;2023-05-10T04:23:02;4.85;;;1.50;;
55212;SDS011;41083;52.932;6.674;2023-05-10T04:25:28;3.75;;;1.38;;
55212;SDS011;41083;52.932;6.674;2023-05-10T04:27:53;4.22;;;1.90;;
55212;SDS011;41083;52.932;6.674;2023-05-10T04:30:19;5.22;;;2.17;;
55212;SDS011;41083;52.932;6.674;2023-05-10T04:32:44;4.15;;;2.30;;
55212;SDS011;41083;52.932;6.674;2023-05-10T04:35:10;4.20;;;1.85;;
55212;SDS011;41083;52.932;6.674;2023-05-10T04:37:36;5.38;;;2.17;;
55212;SDS011;41083;52.932;6.674;2023-05-10T04:40:02;5.40;;;2.47;;
55212;SDS011;41083;52.932;6.674;2023-05-10T04:42:28;5.60;;;2.15;;
55212;SDS011;41083;52.932;6.674;2023-05-10T04:44:53;5.82;;;2.03;;
55212;SDS011;41083;52.932;6.674;2023-05-10T04:47:19;3.55;;;1.70;;
55212;SDS011;41083;52.932;6.674;2023-05-10T04:49:45;5.18;;;1.83;;
55212;SDS011;41083;52.932;6.674;2023-05-10T04:52:10;3.97;;;1.80;;
55212;SDS011;41083;52.932;6.674;2023-05-10T04:54:36;4.13;;;2.28;;
55212;SDS011;41083;52.932;6.674;2023-05-10T04:57:02;5.20;;;2.08;;
55212;SDS011;41083;52.932;6.674;2023-05-10T04:59:27;4.47;;;2.00;;
55212;SDS011;41083;52.932;6.674;2023-05-10T05:01:53;2.83;;;1.45;;
55212;SDS011;41083;52.932;6.674;2023-05-10T05:04:18;4.32;;;1.70;;
55212;SDS011;41083;52.932;6.674;2023-05-10T05:06:44;4.65;;;2.03;;
55212;SDS011;41083;52.932;6.674;2023-05-10T05:09:09;3.58;;;1.55;;
55212;SDS011;41083;52.932;6.674;2023-05-10T05:11:35;4.15;;;1.80;;
55212;SDS011;41083;52.932;6.674;2023-05-10T05:14:01;4.18;;;1.90;;
55212;SDS011;41083;52.932;6.674;2023-05-10T05:16:26;3.05;;;1.80;;
55212;SDS011;41083;52.932;6.674;2023-05-10T05:18:52;4.97;;;1.95;;
55212;SDS011;41083;52.932;6.674;2023-05-10T05:21:18;3.92;;;1.67;;
55212;SDS011;41083;52.932;6.674;2023-05-10T05:23:45;3.65;;;1.90;;
55212;SDS011;41083;52.932;6.674;2023-05-10T05:26:11;4.50;;;2.10;;
55212;SDS011;41083;52.932;6.674;2023-05-10T05:28:36;4.50;;;2.15;;
55212;SDS011;41083;52.932;6.674;2023-05-10T05:31:03;3.63;;;1.42;;
55212;SDS011;41083;52.932;6.674;2023-05-10T05:33:29;4.47;;;1.80;;
55212;SDS011;41083;52.932;6.674;2023-05-10T05:35:54;3.72;;;1.80;;
55212;SDS011;41083;52.932;6.674;2023-05-10T05:38:20;3.97;;;1.88;;
55212;SDS011;41083;52.932;6.674;2023-05-10T05:40:46;4.78;;;1.90;;
55212;SDS011;41083;52.932;6.674;2023-05-10T05:43:11;4.32;;;1.88;;
55212;SDS011;41083;52.932;6.674;2023-05-10T05:45:37;4.93;;;2.08;;
55212;SDS011;41083;52.932;6.674;2023-05-10T05:48:02;5.10;;;2.10;;
55212;SDS011;41083;52.932;6.674;2023-05-10T05:50:28;5.35;;;2.15;;
55212;SDS011;41083;52.932;6.674;2023-05-10T05:52:54;5.35;;;2.03;;
55212;SDS011;41083;52.932;6.674;2023-05-10T05:55:20;4.53;;;1.65;;
55212;SDS011;41083;52.932;6.674;2023-05-10T05:57:46;4.80;;;1.75;;
55212;SDS011;41083;52.932;6.674;2023-05-10T06:00:12;3.53;;;1.90;;
55212;SDS011;41083;52.932;6.674;2023-05-10T06:02:38;3.78;;;1.67;;
55212;SDS011;41083;52.932;6.674;2023-05-10T06:05:03;3.80;;;1.67;;
55212;SDS011;41083;52.932;6.674;2023-05-10T06:07:29;4.90;;;1.80;;
55212;SDS011;41083;52.932;6.674;2023-05-10T06:09:55;3.15;;;1.27;;
55212;SDS011;41083;52.932;6.674;2023-05-10T06:12:20;2.95;;;1.40;;
55212;SDS011;41083;52.932;6.674;2023-05-10T06:14:46;4.18;;;1.52;;
55212;SDS011;41083;52.932;6.674;2023-05-10T06:17:11;2.88;;;1.20;;
55212;SDS011;41083;52.932;6.674;2023-05-10T06:19:37;4.47;;;1.33;;
55212;SDS011;41083;52.932;6.674;2023-05-10T06:22:02;2.25;;;0.95;;
55212;SDS011;41083;52.932;6.674;2023-05-10T06:24:28;2.45;;;1.10;;
55212;SDS011;41083;52.932;6.674;2023-05-10T06:26:54;3.03;;;1.23;;
55212;SDS011;41083;52.932;6.674;2023-05-10T06:29:19;4.97;;;1.40;;
55212;SDS011;41083;52.932;6.674;2023-05-10T06:31:45;4.22;;;1.52;;
55212;SDS011;41083;52.932;6.674;2023-05-10T06:34:11;2.97;;;1.27;;
55212;SDS011;41083;52.932;6.674;2023-05-10T06:36:37;2.70;;;1.20;;
55212;SDS011;41083;52.932;6.674;2023-05-10T06:39:02;4.57;;;1.35;;
55212;SDS011;41083;52.932;6.674;2023-05-10T06:41:28;4.40;;;1.30;;
55212;SDS011;41083;52.932;6.674;2023-05-10T06:43:54;2.67;;;1.17;;
55212;SDS011;41083;52.932;6.674;2023-05-10T06:46:19;2.30;;;0.77;;
55212;SDS011;41083;52.932;6.674;2023-05-10T06:48:45;2.55;;;0.88;;
55212;SDS011;41083;52.932;6.674;2023-05-10T06:51:10;1.88;;;0.70;;
55212;SDS011;41083;52.932;6.674;2023-05-10T06:53:36;1.40;;;0.50;;
55212;SDS011;41083;52.932;6.674;2023-05-10T06:56:02;3.53;;;0.80;;
55212;SDS011;41083;52.932;6.674;2023-05-10T06:58:28;2.35;;;0.82;;
55212;SDS011;41083;52.932;6.674;2023-05-10T07:00:53;1.73;;;0.70;;
55212;SDS011;41083;52.932;6.674;2023-05-10T07:03:19;1.20;;;0.63;;
55212;SDS011;41083;52.932;6.674;2023-05-10T07:05:44;1.50;;;0.55;;
55212;SDS011;41083;52.932;6.674;2023-05-10T07:08:10;1.92;;;0.70;;
55212;SDS011;41083;52.932;6.674;2023-05-10T07:10:35;1.67;;;0.90;;
55212;SDS011;41083;52.932;6.674;2023-05-10T07:13:01;0.93;;;0.50;;
55212;SDS011;41083;52.932;6.674;2023-05-10T07:15:27;1.48;;;0.55;;
55212;SDS011;41083;52.932;6.674;2023-05-10T07:17:53;1.33;;;0.57;;
55212;SDS011;41083;52.932;6.674;2023-05-10T07:20:19;1.85;;;0.70;;
55212;SDS011;41083;52.932;6.674;2023-05-10T07:22:44;2.50;;;0.93;;
55212;SDS011;41083;52.932;6.674;2023-05-10T07:25:10;1.27;;;0.77;;
55212;SDS011;41083;52.932;6.674;2023-05-10T07:27:35;2.17;;;0.55;;
55212;SDS011;41083;52.932;6.674;2023-05-10T07:30:01;1.00;;;0.55;;
55212;SDS011;41083;52.932;6.674;2023-05-10T07:32:27;1.60;;;0.57;;
55212;SDS011;41083;52.932;6.674;2023-05-10T07:34:53;2.00;;;0.85;;
55212;SDS011;41083;52.932;6.674;2023-05-10T07:37:18;1.05;;;0.47;;
55212;SDS011;41083;52.932;6.674;2023-05-10T07:39:44;0.90;;;0.50;;
55212;SDS011;41083;52.932;6.674;2023-05-10T07:42:09;2.05;;;0.80;;
55212;SDS011;41083;52.932;6.674;2023-05-10T07:44:35;1.10;;;0.60;;
55212;SDS011;41083;52.932;6.674;2023-05-10T07:47:01;1.88;;;0.77;;
55212;SDS011;41083;52.932;6.674;2023-05-10T07:49:26;1.63;;;0.60;;
55212;SDS011;41083;52.932;6.674;2023-05-10T07:51:52;1.48;;;0.70;;
55212;SDS011;41083;52.932;6.674;2023-05-10T07:54:17;1.95;;;0.77;;
55212;SDS011;41083;52.932;6.674;2023-05-10T07:56:43;1.20;;;0.50;;
55212;SDS011;41083;52.932;6.674;2023-05-10T07:59:14;1.33;;;0.60;;
55212;SDS011;41083;52.932;6.674;2023-05-10T08:01:41;2.10;;;0.90;;
55212;SDS011;41083;52.932;6.674;2023-05-10T08:04:07;2.22;;;0.73;;
55212;SDS011;41083;52.932;6.674;2023-05-10T08:06:32;3.58;;;0.82;;
55212;SDS011;41083;52.932;6.674;2023-05-10T08:08:58;2.17;;;0.88;;
55212;SDS011;41083;52.932;6.674;2023-05-10T08:11:24;1.08;;;0.50;;
55212;SDS011;41083;52.932;6.674;2023-05-10T08:13:50;1.55;;;0.50;;
55212;SDS011;41083;52.932;6.674;2023-05-10T08:16:16;1.85;;;0.75;;
55212;SDS011;41083;52.932;6.674;2023-05-10T08:18:43;2.22;;;0.70;;
55212;SDS011;41083;52.932;6.674;2023-05-10T08:21:10;1.38;;;0.60;;
55212;SDS011;41083;52.932;6.674;2023-05-10T08:23:36;2.00;;;0.75;;
55212;SDS011;41083;52.932;6.674;2023-05-10T08:26:02;1.48;;;0.70;;
55212;SDS011;41083;52.932;6.674;2023-05-10T08:28:27;2.33;;;1.00;;
55212;SDS011;41083;52.932;6.674;2023-05-10T08:30:53;2.20;;;0.95;;
55212;SDS011;41083;52.932;6.674;2023-05-10T08:33:19;2.08;;;0.80;;
55212;SDS011;41083;52.932;6.674;2023-05-10T08:35:45;1.95;;;1.00;;
55212;SDS011;41083;52.932;6.674;2023-05-10T08:38:10;3.05;;;0.95;;
55212;SDS011;41083;52.932;6.674;2023-05-10T08:40:37;2.22;;;0.93;;
55212;SDS011;41083;52.932;6.674;2023-05-10T08:43:07;2.03;;;1.00;;
55212;SDS011;41083;52.932;6.674;2023-05-10T08:45:38;2.40;;;0.90;;
55212;SDS011;41083;52.932;6.674;2023-05-10T08:48:05;2.28;;;1.15;;
55212;SDS011;41083;52.932;6.674;2023-05-10T08:50:34;1.92;;;1.00;;
55212;SDS011;41083;52.932;6.674;2023-05-10T08:53:03;1.88;;;0.75;;
55212;SDS011;41083;52.932;6.674;2023-05-10T08:55:31;2.03;;;1.10;;
55212;SDS011;41083;52.932;6.674;2023-05-10T08:57:58;2.78;;;1.05;;
55212;SDS011;41083;52.932;6.674;2023-05-10T09:00:24;2.08;;;0.95;;
55212;SDS011;41083;52.932;6.674;2023-05-10T09:02:50;2.25;;;0.98;;
55212;SDS011;41083;52.932;6.674;2023-05-10T09:05:16;2.00;;;0.80;;
55212;SDS011;41083;52.932;6.674;2023-05-10T09:07:42;2.55;;;1.10;;
55212;SDS011;41083;52.932;6.674;2023-05-10T09:10:08;2.08;;;0.90;;
55212;SDS011;41083;52.932;6.674;2023-05-10T09:12:35;2.42;;;0.82;;
55212;SDS011;41083;52.932;6.674;2023-05-10T09:15:01;2.83;;;0.80;;
55212;SDS011;41083;52.932;6.674;2023-05-10T09:17:28;1.60;;;0.88;;
55212;SDS011;41083;52.932;6.674;2023-05-10T09:19:58;1.63;;;0.80;;
55212;SDS011;41083;52.932;6.674;2023-05-10T09:22:24;1.70;;;0.70;;
55212;SDS011;41083;52.932;6.674;2023-05-10T09:25:03;2.63;;;0.98;;
55212;SDS011;41083;52.932;6.674;2023-05-10T09:27:33;2.53;;;1.05;;
55212;SDS011;41083;52.932;6.674;2023-05-10T09:29:58;2.53;;;1.00;;
55212;SDS011;41083;52.932;6.674;2023-05-10T09:32:37;2.70;;;1.13;;
55212;SDS011;41083;52.932;6.674;2023-05-10T09:35:10;2.30;;;1.13;;
55212;SDS011;41083;52.932;6.674;2023-05-10T09:37:41;4.10;;;1.00;;
55212;SDS011;41083;52.932;6.674;2023-05-10T09:40:15;2.72;;;0.93;;
55212;SDS011;41083;52.932;6.674;2023-05-10T09:43:29;4.10;;;1.20;;
55212;SDS011;41083;52.932;6.674;2023-05-10T09:45:36;3.05;;;1.20;;
55212;SDS011;41083;52.932;6.674;2023-05-10T09:48:02;3.85;;;1.00;;
55212;SDS011;41083;52.932;6.674;2023-05-10T09:50:28;2.25;;;1.17;;
55212;SDS011;41083;52.932;6.674;2023-05-10T09:52:56;3.65;;;1.33;;
55212;SDS011;41083;52.932;6.674;2023-05-10T09:55:43;3.05;;;1.40;;
55212;SDS011;41083;52.932;6.674;2023-05-10T09:58:11;3.38;;;1.20;;
55212;SDS011;41083;52.932;6.674;2023-05-10T10:00:40;3.60;;;1.52;;
55212;SDS011;41083;52.932;6.674;2023-05-10T10:03:14;2.72;;;1.33;;
55212;SDS011;41083;52.932;6.674;2023-05-10T10:05:41;2.70;;;1.13;;
55212;SDS011;41083;52.932;6.674;2023-05-10T10:08:08;2.70;;;1.40;;
55212;SDS011;41083;52.932;6.674;2023-05-10T10:10:34;2.83;;;1.42;;
55212;SDS011;41083;52.932;6.674;2023-05-10T10:13:01;3.75;;;1.60;;
55212;SDS011;41083;52.932;6.674;2023-05-10T10:15:27;3.22;;;1.52;;
55212;SDS011;41083;52.932;6.674;2023-05-10T10:17:53;3.83;;;1.10;;
55212;SDS011;41083;52.932;6.674;2023-05-10T10:20:19;2.83;;;1.35;;
55212;SDS011;41083;52.932;6.674;2023-05-10T10:22:46;3.90;;;1.40;;
55212;SDS011;41083;52.932;6.674;2023-05-10T10:25:13;3.92;;;1.30;;
55212;SDS011;41083;52.932;6.674;2023-05-10T10:27:48;4.72;;;2.03;;
55212;SDS011;41083;52.932;6.674;2023-05-10T10:30:47;3.53;;;1.80;;
55212;SDS011;41083;52.932;6.674;2023-05-10T10:36:16;2.42;;;1.13;;
55212;SDS011;41083;52.932;6.674;2023-05-10T10:50:08;4.63;;;1.83;;
55212;SDS011;41083;52.932;6.674;2023-05-10T10:52:37;3.60;;;1.35;;
55212;SDS011;41083;52.932;6.674;2023-05-10T11:02:52;5.63;;;1.63;;
55212;SDS011;41083;52.932;6.674;2023-05-10T11:13:29;2.33;;;1.30;;
55212;SDS011;41083;52.932;6.674;2023-05-10T11:16:13;4.38;;;1.67;;
55212;SDS011;41083;52.932;6.674;2023-05-10T11:18:51;3.28;;;1.40;;
55212;SDS011;41083;52.932;6.674;2023-05-10T11:21:23;3.70;;;1.45;;
55212;SDS011;41083;52.932;6.674;2023-05-10T11:23:50;2.70;;;1.48;;
55212;SDS011;41083;52.932;6.674;2023-05-10T11:26:30;5.35;;;1.80;;
55212;SDS011;41083;52.932;6.674;2023-05-10T11:28:57;5.05;;;2.22;;
55212;SDS011;41083;52.932;6.674;2023-05-10T11:31:25;3.65;;;1.45;;
55212;SDS011;41083;52.932;6.674;2023-05-10T11:33:55;3.80;;;1.70;;
55212;SDS011;41083;52.932;6.674;2023-05-10T11:36:28;3.65;;;1.35;;
55212;SDS011;41083;52.932;6.674;2023-05-10T11:41:23;2.80;;;1.17;;
55212;SDS011;41083;52.932;6.674;2023-05-10T11:43:50;3.85;;;1.50;;
55212;SDS011;41083;52.932;6.674;2023-05-10T11:46:18;3.92;;;1.27;;
55212;SDS011;41083;52.932;6.674;2023-05-10T11:48:45;3.17;;;1.27;;
55212;SDS011;41083;52.932;6.674;2023-05-10T11:51:14;2.80;;;1.40;;
55212;SDS011;41083;52.932;6.674;2023-05-10T11:53:39;3.72;;;1.25;;
55212;SDS011;41083;52.932;6.674;2023-05-10T11:56:06;3.10;;;1.40;;
55212;SDS011;41083;52.932;6.674;2023-05-10T11:58:36;2.17;;;1.17;;
55212;SDS011;41083;52.932;6.674;2023-05-10T12:01:03;3.75;;;1.63;;
55212;SDS011;41083;52.932;6.674;2023-05-10T12:03:30;4.45;;;1.20;;
55212;SDS011;41083;52.932;6.674;2023-05-10T12:05:56;4.95;;;1.40;;
55212;SDS011;41083;52.932;6.674;2023-05-10T12:08:23;2.75;;;1.13;;
55212;SDS011;41083;52.932;6.674;2023-05-10T12:10:50;3.33;;;1.30;;
55212;SDS011;41083;52.932;6.674;2023-05-10T12:13:16;4.57;;;1.73;;
55212;SDS011;41083;52.932;6.674;2023-05-10T12:15:42;4.30;;;1.65;;
55212;SDS011;41083;52.932;6.674;2023-05-10T12:18:12;2.97;;;1.30;;
55212;SDS011;41083;52.932;6.674;2023-05-10T12:20:39;4.35;;;1.50;;
55212;SDS011;41083;52.932;6.674;2023-05-10T12:23:05;2.33;;;1.00;;
55212;SDS011;41083;52.932;6.674;2023-05-10T12:25:34;3.08;;;1.30;;
55212;SDS011;41083;52.932;6.674;2023-05-10T12:28:04;3.25;;;1.50;;
55212;SDS011;41083;52.932;6.674;2023-05-10T12:30:33;4.00;;;1.85;;
55212;SDS011;41083;52.932;6.674;2023-05-10T12:33:10;6.10;;;1.70;;
55212;SDS011;41083;52.932;6.674;2023-05-10T12:35:47;4.57;;;1.75;;
55212;SDS011;41083;52.932;6.674;2023-05-10T12:38:28;3.85;;;1.80;;
55212;SDS011;41083;52.932;6.674;2023-05-10T12:40:59;3.15;;;1.45;;
55212;SDS011;41083;52.932;6.674;2023-05-10T12:43:26;4.13;;;1.92;;
55212;SDS011;41083;52.932;6.674;2023-05-10T12:45:51;5.78;;;1.63;;
55212;SDS011;41083;52.932;6.674;2023-05-10T12:48:17;3.90;;;1.33;;
55212;SDS011;41083;52.932;6.674;2023-05-10T12:50:43;5.15;;;1.75;;
55212;SDS011;41083;52.932;6.674;2023-05-10T12:53:09;4.72;;;1.75;;
55212;SDS011;41083;52.932;6.674;2023-05-10T12:55:34;3.35;;;1.50;;
55212;SDS011;41083;52.932;6.674;2023-05-10T12:58:00;6.57;;;1.90;;
55212;SDS011;41083;52.932;6.674;2023-05-10T13:00:25;4.97;;;1.83;;
55212;SDS011;41083;52.932;6.674;2023-05-10T13:02:51;5.13;;;1.60;;
55212;SDS011;41083;52.932;6.674;2023-05-10T13:05:17;2.80;;;1.30;;
55212;SDS011;41083;52.932;6.674;2023-05-10T13:07:42;4.38;;;1.90;;
55212;SDS011;41083;52.932;6.674;2023-05-10T13:10:09;5.57;;;1.77;;
55212;SDS011;41083;52.932;6.674;2023-05-10T13:12:35;5.13;;;1.63;;
55212;SDS011;41083;52.932;6.674;2023-05-10T13:15:01;3.53;;;1.60;;
55212;SDS011;41083;52.932;6.674;2023-05-10T13:17:28;5.63;;;1.80;;
55212;SDS011;41083;52.932;6.674;2023-05-10T13:19:53;5.18;;;1.80;;
55212;SDS011;41083;52.932;6.674;2023-05-10T13:22:19;5.88;;;1.95;;
55212;SDS011;41083;52.932;6.674;2023-05-10T13:24:45;4.57;;;1.58;;
55212;SDS011;41083;52.932;6.674;2023-05-10T13:27:10;5.82;;;2.13;;
55212;SDS011;41083;52.932;6.674;2023-05-10T13:29:36;4.57;;;2.00;;
55212;SDS011;41083;52.932;6.674;2023-05-10T13:32:01;6.55;;;2.08;;
55212;SDS011;41083;52.932;6.674;2023-05-10T13:34:27;4.65;;;2.10;;
55212;SDS011;41083;52.932;6.674;2023-05-10T13:36:53;5.90;;;2.03;;
55212;SDS011;41083;52.932;6.674;2023-05-10T13:39:19;6.05;;;1.92;;
55212;SDS011;41083;52.932;6.674;2023-05-10T13:41:45;6.07;;;2.53;;
55212;SDS011;41083;52.932;6.674;2023-05-10T13:44:12;5.32;;;2.30;;
55212;SDS011;41083;52.932;6.674;2023-05-10T13:46:39;6.55;;;2.65;;
55212;SDS011;41083;52.932;6.674;2023-05-10T13:49:08;5.55;;;2.10;;
55212;SDS011;41083;52.932;6.674;2023-05-10T13:51:34;6.38;;;2.20;;
55212;SDS011;41083;52.932;6.674;2023-05-10T13:54:01;7.18;;;2.25;;
55212;SDS011;41083;52.932;6.674;2023-05-10T13:56:27;6.70;;;2.17;;
55212;SDS011;41083;52.932;6.674;2023-05-10T13:58:52;6.03;;;2.20;;
55212;SDS011;41083;52.932;6.674;2023-05-10T14:01:18;4.70;;;1.92;;
55212;SDS011;41083;52.932;6.674;2023-05-10T14:03:44;4.90;;;2.03;;
55212;SDS011;41083;52.932;6.674;2023-05-10T14:06:09;4.10;;;2.08;;
55212;SDS011;41083;52.932;6.674;2023-05-10T14:08:35;6.30;;;2.22;;
55212;SDS011;41083;52.932;6.674;2023-05-10T14:11:01;5.78;;;2.13;;
55212;SDS011;41083;52.932;6.674;2023-05-10T14:13:27;7.70;;;2.55;;
55212;SDS011;41083;52.932;6.674;2023-05-10T14:15:52;6.82;;;2.38;;
55212;SDS011;41083;52.932;6.674;2023-05-10T14:18:18;6.55;;;2.80;;
55212;SDS011;41083;52.932;6.674;2023-05-10T14:20:44;4.35;;;2.00;;
55212;SDS011;41083;52.932;6.674;2023-05-10T14:23:10;5.13;;;2.30;;
55212;SDS011;41083;52.932;6.674;2023-05-10T14:25:36;5.97;;;2.10;;
55212;SDS011;41083;52.932;6.674;2023-05-10T14:28:03;7.32;;;2.67;;
55212;SDS011;41083;52.932;6.674;2023-05-10T14:30:28;6.47;;;2.50;;
55212;SDS011;41083;52.932;6.674;2023-05-10T14:32:54;4.90;;;2.05;;
55212;SDS011;41083;52.932;6.674;2023-05-10T14:35:20;6.07;;;2.17;;
55212;SDS011;41083;52.932;6.674;2023-05-10T14:37:46;4.18;;;1.80;;
55212;SDS011;41083;52.932;6.674;2023-05-10T14:40:11;5.35;;;2.10;;
55212;SDS011;41083;52.932;6.674;2023-05-10T14:42:37;7.47;;;2.50;;
55212;SDS011;41083;52.932;6.674;2023-05-10T14:45:03;6.15;;;2.55;;
55212;SDS011;41083;52.932;6.674;2023-05-10T14:47:29;6.60;;;2.33;;
55212;SDS011;41083;52.932;6.674;2023-05-10T14:49:55;5.85;;;2.33;;
55212;SDS011;41083;52.932;6.674;2023-05-10T14:52:21;7.63;;;2.20;;
55212;SDS011;41083;52.932;6.674;2023-05-10T14:54:46;5.10;;;1.95;;
55212;SDS011;41083;52.932;6.674;2023-05-10T14:57:12;6.20;;;2.38;;
55212;SDS011;41083;52.932;6.674;2023-05-10T14:59:38;4.60;;;1.83;;
55212;SDS011;41083;52.932;6.674;2023-05-10T15:02:04;7.93;;;2.58;;
55212;SDS011;41083;52.932;6.674;2023-05-10T15:04:30;5.72;;;1.88;;
55212;SDS011;41083;52.932;6.674;2023-05-10T15:06:56;5.15;;;1.98;;
55212;SDS011;41083;52.932;6.674;2023-05-10T15:09:25;5.30;;;2.17;;
55212;SDS011;41083;52.932;6.674;2023-05-10T15:11:52;5.95;;;2.40;;
55212;SDS011;41083;52.932;6.674;2023-05-10T15:14:18;7.57;;;2.20;;
55212;SDS011;41083;52.932;6.674;2023-05-10T15:16:43;5.90;;;1.77;;
55212;SDS011;41083;52.932;6.674;2023-05-10T15:19:09;5.95;;;1.63;;
55212;SDS011;41083;52.932;6.674;2023-05-10T15:21:35;5.50;;;2.53;;
55212;SDS011;41083;52.932;6.674;2023-05-10T15:24:06;5.88;;;2.00;;
55212;SDS011;41083;52.932;6.674;2023-05-10T15:26:32;5.30;;;2.38;;
55212;SDS011;41083;52.932;6.674;2023-05-10T15:28:58;5.43;;;2.00;;
55212;SDS011;41083;52.932;6.674;2023-05-10T15:31:24;6.47;;;2.22;;
55212;SDS011;41083;52.932;6.674;2023-05-10T15:33:49;4.57;;;1.67;;
55212;SDS011;41083;52.932;6.674;2023-05-10T15:36:15;4.88;;;2.00;;